^^
Station Historical Data
Daily Summary for May 2, 2017 Units:  English    Metric   Both
« Previous Day
Next Day »
Daily Weekly Monthly Yearly Custom
  High: Low: Average:
Temperature: 72.7 °F 61.3 °F 67.1 °F
Dew Point: 64.7 °F 38.0 °F 51.9 °F
Humidity: 93% 33% 62%
Wind Speed: 12.0mph 0.0mph 4.8mph
Wind Gust: 30.0mph - -
Wind- - SW
Pressure: 29.78 in 29.58 in -
Precipitation: 0.03 in    
Historical Graphs
 
 
Tabular Data for May 2, 2017
Time Temperature Dew Point Pressure Wind Wind Speed Wind Gust Humidity Rainfall Rate (Hourly) Conditions
00:00 63.0 °F 60.0 °F 29.65 in SW 3.0 mph 13.0 mph 90% 0.00 in CLR
00:15 62.9 °F 59.9 °F 29.64 in SW 2.0 mph 12.0 mph 90% 0.00 in FEW
00:30 63.1 °F 60.1 °F 29.65 in Calm   12.0 mph 90% 0.00 in FEW
00:45 63.0 °F 60.0 °F 29.65 in WSW 1.0 mph 8.0 mph 90% 0.00 in FEW
01:00 62.9 °F 60.2 °F 29.65 in SE 2.0 mph 9.0 mph 91% 0.00 in FEW
02:15 62.1 °F 59.8 °F 29.62 in South 1.0 mph 6.0 mph 92% 0.00 in -RA
02:30 62.1 °F 60.1 °F 29.62 in Calm   5.0 mph 93% 0.00 in -RA
02:45 62.0 °F 60.0 °F 29.61 in SSW 1.0 mph 6.0 mph 93% 0.00 in -RA
03:00 62.0 °F 60.0 °F 29.60 in SSW 1.0 mph 6.0 mph 93% 0.00 in -RA
03:15 62.4 °F 60.4 °F 29.60 in SSW 3.0 mph 8.0 mph 93% 0.00 in BKN
03:30 63.5 °F 61.1 °F 29.60 in South 5.0 mph 12.0 mph 92% 0.00 in BKN
03:45 64.5 °F 61.5 °F 29.59 in South 5.0 mph 12.0 mph 90% 0.00 in BKN
04:00 65.3 °F 62.0 °F 29.58 in SSW 8.0 mph 14.0 mph 89% 0.00 in BKN
04:15 66.0 °F 62.0 °F 29.58 in SSW 2.0 mph 15.0 mph 87% 0.00 in FEW
04:30 66.0 °F 62.0 °F 29.59 in SSE 7.0 mph 13.0 mph 87% 0.00 in FEW
04:45 66.4 °F 62.4 °F 29.58 in South 6.0 mph 12.0 mph 87% 0.00 in FEW
05:00 67.1 °F 62.8 °F 29.58 in South 5.0 mph 14.0 mph 86% 0.00 in FEW
05:15 67.0 °F 63.0 °F 29.58 in SW 5.0 mph 13.0 mph 87% 0.00 in BKN
05:30 66.8 °F 63.1 °F 29.59 in SSW 6.0 mph 12.0 mph 88% 0.00 in BKN
05:45 67.5 °F 63.8 °F 29.59 in SSW 8.0 mph 17.0 mph 88% 0.00 in BKN
06:00 68.0 °F 64.3 °F 29.58 in SW 7.0 mph 16.0 mph 88% 0.00 in BKN
06:15 68.4 °F 64.7 °F 29.59 in South 7.0 mph 21.0 mph 88% 0.00 in BKN
06:30 67.6 °F 63.9 °F 29.58 in South 6.0 mph 16.0 mph 88% 0.00 in BKN
06:45 67.4 °F 64.0 °F 29.58 in SSW 6.0 mph 14.0 mph 89% 0.00 in BKN
07:00 65.5 °F 62.5 °F 29.60 in South 2.0 mph 12.0 mph 90% 0.03 in RA
07:15 64.2 °F 61.8 °F 29.59 in Calm   3.0 mph 92% 0.00 in BKN
07:30 64.3 °F 62.3 °F 29.59 in Calm   1.0 mph 93% 0.00 in BKN
07:45 64.5 °F 62.4 °F 29.59 in Calm   3.0 mph 93% 0.00 in BKN
08:00 64.9 °F 62.5 °F 29.59 in SSW 1.0 mph 2.0 mph 92% 0.00 in BKN
08:15 66.3 °F 63.0 °F 29.60 in South 2.0 mph 7.0 mph 89% 0.00 in BKN
08:30 67.2 °F 61.5 °F 29.59 in SW 6.0 mph 12.0 mph 82% 0.00 in BKN
08:45 68.3 °F 61.5 °F 29.59 in WSW 3.0 mph 9.0 mph 79% 0.00 in BKN
09:00 68.2 °F 60.0 °F 29.59 in WSW 3.0 mph 10.0 mph 75% 0.00 in BKN
09:15 69.4 °F 58.8 °F 29.59 in WSW 6.0 mph 8.0 mph 69% 0.00 in BKN
09:30 68.6 °F 57.7 °F 29.59 in SW 1.0 mph 6.0 mph 68% 0.00 in BKN
09:45 68.6 °F 55.9 °F 29.58 in WSW 1.0 mph 4.0 mph 64% 0.00 in BKN
10:00 69.5 °F 56.3 °F 29.58 in SSW 1.0 mph 6.0 mph 63% 0.00 in BKN
10:30 71.1 °F 55.1 °F 29.58 in SSW 2.0 mph 4.0 mph 57% 0.00 in BKN
10:45 71.2 °F 54.2 °F 29.58 in WSW 2.0 mph 9.0 mph 55% 0.00 in BKN
11:00 71.6 °F 53.6 °F 29.58 in WSW 1.0 mph 8.0 mph 53% 0.00 in BKN
11:15 71.7 °F 53.2 °F 29.58 in West 3.0 mph 7.0 mph 52% 0.00 in BKN
11:30 70.8 °F 53.4 °F 29.58 in WSW 2.0 mph 9.0 mph 54% 0.00 in BKN
11:45 71.2 °F 53.2 °F 29.58 in WSW 3.0 mph 9.0 mph 53% 0.00 in BKN
12:00 72.7 °F 53.0 °F 29.58 in WSW 3.0 mph 13.0 mph 50% 0.00 in BKN
12:15 70.9 °F 53.4 °F 29.58 in West 3.0 mph 14.0 mph 54% 0.00 in BKN
12:30 70.9 °F 53.4 °F 29.58 in WSW 3.0 mph 15.0 mph 54% 0.00 in BKN
12:45 71.6 °F 53.5 °F 29.58 in SW 3.0 mph 13.0 mph 53% 0.00 in BKN
13:00 70.7 °F 53.2 °F 29.58 in SW 5.0 mph 14.0 mph 54% 0.00 in BKN
13:15 70.8 °F 52.8 °F 29.58 in SW 6.0 mph 15.0 mph 53% 0.00 in BKN
13:30 71.3 °F 53.3 °F 29.58 in WSW 3.0 mph 12.0 mph 53% 0.00 in BKN
13:45 69.9 °F 52.0 °F 29.58 in SW 2.0 mph 14.0 mph 53% 0.00 in BKN
14:00 71.5 °F 52.4 °F 29.58 in SW 6.0 mph 16.0 mph 51% 0.00 in BKN
14:15 70.4 °F 51.4 °F 29.58 in SSW 3.0 mph 17.0 mph 51% 0.00 in BKN
14:30 71.0 °F 50.8 °F 29.58 in SSW 8.0 mph 18.0 mph 49% 0.00 in BKN
14:45 70.6 °F 51.6 °F 29.58 in WSW 5.0 mph 20.0 mph 51% 0.00 in BKN
15:00 70.3 °F 50.8 °F 29.58 in SW 7.0 mph 20.0 mph 50% 0.00 in BKN
15:15 69.2 °F 50.8 °F 29.58 in SW 8.0 mph 16.0 mph 52% 0.00 in BKN
15:30 70.3 °F 50.2 °F 29.58 in SW 8.0 mph 16.0 mph 49% 0.00 in BKN
15:45 70.7 °F 48.9 °F 29.58 in SW 7.0 mph 25.0 mph 46% 0.00 in BKN
16:00 71.6 °F 49.1 °F 29.58 in SSW 8.0 mph 20.0 mph 45% 0.00 in BKN
16:15 70.9 °F 45.4 °F 29.58 in SW 8.0 mph 21.0 mph 40% 0.00 in SCT
16:30 71.3 °F 44.4 °F 29.58 in SSW 8.0 mph 27.0 mph 38% 0.00 in SCT
16:45 71.0 °F 43.4 °F 29.59 in SW 12.0 mph 26.0 mph 37% 0.00 in SCT
17:00 70.6 °F 42.3 °F 29.60 in WSW 12.0 mph 30.0 mph 36% 0.00 in SCT
17:15 70.2 °F 42.0 °F 29.61 in SW 12.0 mph 25.0 mph 36% 0.00 in SCT
17:30 69.8 °F 41.6 °F 29.62 in WSW 10.0 mph 21.0 mph 36% 0.00 in SCT
17:45 69.8 °F 39.4 °F 29.63 in SW 9.0 mph 27.0 mph 33% 0.00 in SCT
18:00 69.5 °F 39.1 °F 29.64 in SW 9.0 mph 27.0 mph 33% 0.00 in SCT
18:15 68.8 °F 38.5 °F 29.64 in SSW 5.0 mph 21.0 mph 33% 0.00 in SCT
18:30 68.1 °F 39.4 °F 29.65 in SSW 5.0 mph 20.0 mph 35% 0.00 in SCT
18:45 67.7 °F 39.7 °F 29.66 in WSW 9.0 mph 18.0 mph 36% 0.00 in SCT
19:00 66.7 °F 39.6 °F 29.67 in WSW 7.0 mph 22.0 mph 37% 0.00 in SCT
19:15 66.1 °F 39.7 °F 29.67 in SW 10.0 mph 23.0 mph 38% 0.00 in SCT
19:30 65.8 °F 40.2 °F 29.67 in SW 8.0 mph 17.0 mph 39% 0.00 in SCT
19:45 65.3 °F 40.3 °F 29.67 in SW 5.0 mph 17.0 mph 40% 0.00 in SCT
20:00 65.1 °F 41.4 °F 29.68 in SW 3.0 mph 14.0 mph 42% 0.00 in SCT
20:15 64.8 °F 41.8 °F 29.69 in SW 2.0 mph 12.0 mph 43% 0.00 in BKN
20:30 64.9 °F 41.9 °F 29.70 in SW 3.0 mph 17.0 mph 43% 0.00 in BKN
20:45 64.9 °F 41.3 °F 29.71 in SSW 7.0 mph 17.0 mph 42% 0.00 in BKN
21:00 64.8 °F 39.9 °F 29.72 in SW 9.0 mph 18.0 mph 40% 0.00 in BKN
21:15 64.5 °F 39.6 °F 29.73 in SW 5.0 mph 17.0 mph 40% 0.00 in BKN
21:30 64.0 °F 39.2 °F 29.74 in WSW 8.0 mph 16.0 mph 40% 0.00 in BKN
21:45 63.5 °F 39.3 °F 29.75 in South 5.0 mph 13.0 mph 41% 0.00 in BKN
22:00 63.0 °F 38.9 °F 29.76 in SSW 9.0 mph 15.0 mph 41% 0.00 in BKN
22:15 62.8 °F 39.3 °F 29.76 in WSW 6.0 mph 16.0 mph 42% 0.00 in BKN
22:30 62.6 °F 38.6 °F 29.77 in SW 5.0 mph 12.0 mph 41% 0.00 in BKN
22:45 62.4 °F 38.4 °F 29.77 in SSW 2.0 mph 13.0 mph 41% 0.00 in BKN
23:00 62.2 °F 38.2 °F 29.77 in SSW 7.0 mph 17.0 mph 41% 0.00 in BKN
23:15 62.0 °F 38.0 °F 29.78 in SSW 3.0 mph 16.0 mph 41% 0.00 in BKN
23:30 61.7 °F 38.4 °F 29.78 in SW 8.0 mph 21.0 mph 42% 0.00 in BKN
23:45 61.3 °F 39.2 °F 29.77 in SSW 5.0 mph 22.0 mph 44% 0.00 in BKN
TarryTown NY Weather
Compliments of Weather Underground - 1.5 mb